sensor_id;sensor_type;location;lat;lon;timestamp;pressure;altitude;pressure_sealevel;temperature;humidity
6532;BME280;3299;42.004;24.868;2023-04-19T00:01:51;97696.13;;;10.66;100.00
6532;BME280;3299;42.004;24.868;2023-04-19T00:04:16;97756.94;;;11.03;100.00
6532;BME280;3299;42.004;24.868;2023-04-19T00:06:41;97731.16;;;10.70;100.00
6532;BME280;3299;42.004;24.868;2023-04-19T00:09:07;97683.03;;;10.47;100.00
6532;BME280;3299;42.004;24.868;2023-04-19T00:11:33;97741.94;;;10.86;100.00
6532;BME280;3299;42.004;24.868;2023-04-19T00:13:58;97668.97;;;10.29;100.00
6532;BME280;3299;42.004;24.868;2023-04-19T00:16:24;97658.91;;;10.46;100.00
6532;BME280;3299;42.004;24.868;2023-04-19T00:18:50;97655.75;;;10.43;100.00
6532;BME280;3299;42.004;24.868;2023-04-19T00:21:15;97665.88;;;10.46;100.00
6532;BME280;3299;42.004;24.868;2023-04-19T00:23:41;97679.44;;;10.70;100.00
6532;BME280;3299;42.004;24.868;2023-04-19T00:26:06;97703.47;;;10.81;100.00
6532;BME280;3299;42.004;24.868;2023-04-19T00:28:32;97675.66;;;10.42;100.00
6532;BME280;3299;42.004;24.868;2023-04-19T00:30:58;97700.19;;;10.48;100.00
6532;BME280;3299;42.004;24.868;2023-04-19T00:33:24;97685.16;;;10.42;100.00
6532;BME280;3299;42.004;24.868;2023-04-19T00:35:49;97695.44;;;10.64;100.00
6532;BME280;3299;42.004;24.868;2023-04-19T00:38:15;97692.56;;;10.78;100.00
6532;BME280;3299;42.004;24.868;2023-04-19T00:40:40;97709.13;;;11.07;100.00
6532;BME280;3299;42.004;24.868;2023-04-19T00:43:05;97663.81;;;10.92;100.00
6532;BME280;3299;42.004;24.868;2023-04-19T00:45:32;97712.28;;;11.31;100.00
6532;BME280;3299;42.004;24.868;2023-04-19T00:48:00;97725.75;;;11.45;100.00
6532;BME280;3299;42.004;24.868;2023-04-19T00:50:25;97662.59;;;11.16;100.00
6532;BME280;3299;42.004;24.868;2023-04-19T00:52:53;97708.50;;;11.55;100.00
6532;BME280;3299;42.004;24.868;2023-04-19T00:55:19;97700.06;;;11.53;100.00
6532;BME280;3299;42.004;24.868;2023-04-19T00:57:46;97653.25;;;11.25;100.00
6532;BME280;3299;42.004;24.868;2023-04-19T01:00:12;97691.72;;;11.50;100.00
6532;BME280;3299;42.004;24.868;2023-04-19T01:02:38;97689.81;;;11.52;100.00
6532;BME280;3299;42.004;24.868;2023-04-19T01:05:03;97717.50;;;11.51;100.00
6532;BME280;3299;42.004;24.868;2023-04-19T01:07:29;97724.31;;;11.32;100.00
6532;BME280;3299;42.004;24.868;2023-04-19T01:09:54;97645.31;;;10.96;100.00
6532;BME280;3299;42.004;24.868;2023-04-19T01:12:20;97707.88;;;11.22;100.00
6532;BME280;3299;42.004;24.868;2023-04-19T01:14:45;97720.38;;;11.17;100.00
6532;BME280;3299;42.004;24.868;2023-04-19T01:17:11;97651.88;;;10.80;100.00
6532;BME280;3299;42.004;24.868;2023-04-19T01:19:37;97699.09;;;11.13;100.00
6532;BME280;3299;42.004;24.868;2023-04-19T01:22:03;97716.03;;;11.17;100.00
6532;BME280;3299;42.004;24.868;2023-04-19T01:24:29;97698.78;;;11.07;100.00
6532;BME280;3299;42.004;24.868;2023-04-19T01:26:54;97681.88;;;11.03;100.00
6532;BME280;3299;42.004;24.868;2023-04-19T01:29:20;97714.38;;;11.16;100.00
6532;BME280;3299;42.004;24.868;2023-04-19T01:31:47;97630.38;;;10.68;100.00
6532;BME280;3299;42.004;24.868;2023-04-19T01:34:16;97623.69;;;10.66;100.00
6532;BME280;3299;42.004;24.868;2023-04-19T01:36:41;97618.38;;;10.47;100.00
6532;BME280;3299;42.004;24.868;2023-04-19T01:39:06;97624.06;;;10.61;100.00
6532;BME280;3299;42.004;24.868;2023-04-19T01:41:32;97674.47;;;10.98;100.00
6532;BME280;3299;42.004;24.868;2023-04-19T01:43:57;97700.69;;;11.05;100.00
6532;BME280;3299;42.004;24.868;2023-04-19T01:46:24;97697.06;;;10.96;100.00
6532;BME280;3299;42.004;24.868;2023-04-19T01:48:50;97692.72;;;10.97;100.00
6532;BME280;3299;42.004;24.868;2023-04-19T01:51:15;97701.50;;;11.05;100.00
6532;BME280;3299;42.004;24.868;2023-04-19T01:53:41;97663.81;;;10.92;100.00
6532;BME280;3299;42.004;24.868;2023-04-19T01:56:07;97665.63;;;11.01;100.00
6532;BME280;3299;42.004;24.868;2023-04-19T01:58:32;97665.91;;;10.98;100.00
6532;BME280;3299;42.004;24.868;2023-04-19T02:00:57;97647.22;;;10.94;100.00
6532;BME280;3299;42.004;24.868;2023-04-19T02:03:23;97611.22;;;10.71;100.00
6532;BME280;3299;42.004;24.868;2023-04-19T02:05:48;97688.81;;;11.02;100.00
6532;BME280;3299;42.004;24.868;2023-04-19T02:08:14;97692.72;;;10.97;100.00
6532;BME280;3299;42.004;24.868;2023-04-19T02:10:39;97610.50;;;10.48;100.00
6532;BME280;3299;42.004;24.868;2023-04-19T02:13:05;97652.41;;;10.63;100.00
6532;BME280;3299;42.004;24.868;2023-04-19T02:15:30;97603.81;;;10.46;100.00
6532;BME280;3299;42.004;24.868;2023-04-19T02:17:55;97628.03;;;10.76;100.00
6532;BME280;3299;42.004;24.868;2023-04-19T02:20:21;97630.16;;;10.71;100.00
6532;BME280;3299;42.004;24.868;2023-04-19T02:22:48;97654.41;;;10.91;100.00
6532;BME280;3299;42.004;24.868;2023-04-19T02:25:13;97670.34;;;10.96;100.00
6532;BME280;3299;42.004;24.868;2023-04-19T02:27:40;97604.84;;;10.54;100.00
6532;BME280;3299;42.004;24.868;2023-04-19T02:30:06;97626.53;;;10.63;100.00
6532;BME280;3299;42.004;24.868;2023-04-19T02:32:32;97662.66;;;10.85;100.00
6532;BME280;3299;42.004;24.868;2023-04-19T02:34:57;97673.16;;;11.04;100.00
6532;BME280;3299;42.004;24.868;2023-04-19T02:37:23;97595.50;;;10.63;100.00
6532;BME280;3299;42.004;24.868;2023-04-19T02:39:48;97611.66;;;10.76;100.00
6532;BME280;3299;42.004;24.868;2023-04-19T02:42:14;97599.72;;;10.84;100.00
6532;BME280;3299;42.004;24.868;2023-04-19T02:44:39;97667.34;;;11.32;100.00
6532;BME280;3299;42.004;24.868;2023-04-19T02:47:04;97621.31;;;11.15;100.00
6532;BME280;3299;42.004;24.868;2023-04-19T02:49:30;97659.13;;;11.27;100.00
6532;BME280;3299;42.004;24.868;2023-04-19T02:52:01;97577.63;;;10.80;100.00
6532;BME280;3299;42.004;24.868;2023-04-19T02:54:26;97655.91;;;11.34;100.00
6532;BME280;3299;42.004;24.868;2023-04-19T02:56:51;97622.16;;;11.25;100.00
6532;BME280;3299;42.004;24.868;2023-04-19T02:59:17;97577.19;;;10.96;100.00
6532;BME280;3299;42.004;24.868;2023-04-19T03:01:42;97669.47;;;11.47;100.00
6532;BME280;3299;42.004;24.868;2023-04-19T03:04:08;97578.69;;;10.98;100.00
6532;BME280;3299;42.004;24.868;2023-04-19T03:06:33;97617.50;;;11.19;100.00
6532;BME280;3299;42.004;24.868;2023-04-19T03:08:58;97630.44;;;11.19;100.00
6532;BME280;3299;42.004;24.868;2023-04-19T03:11:24;97617.25;;;11.22;100.00
6532;BME280;3299;42.004;24.868;2023-04-19T03:13:49;97659.00;;;11.49;100.00
6532;BME280;3299;42.004;24.868;2023-04-19T03:16:14;97625.41;;;11.38;100.00
6532;BME280;3299;42.004;24.868;2023-04-19T03:18:40;97657.16;;;11.60;100.00
6532;BME280;3299;42.004;24.868;2023-04-19T03:21:08;97574.41;;;11.08;100.00
6532;BME280;3299;42.004;24.868;2023-04-19T03:23:33;97578.53;;;10.90;100.00
6532;BME280;3299;42.004;24.868;2023-04-19T03:25:59;97623.78;;;10.96;100.00
6532;BME280;3299;42.004;24.868;2023-04-19T03:28:25;97575.72;;;10.73;100.00
6532;BME280;3299;42.004;24.868;2023-04-19T03:30:50;97605.03;;;10.83;100.00
6532;BME280;3299;42.004;24.868;2023-04-19T03:33:16;97581.34;;;10.67;100.00
6532;BME280;3299;42.004;24.868;2023-04-19T03:35:42;97624.66;;;10.85;100.00
6532;BME280;3299;42.004;24.868;2023-04-19T03:38:08;97656.00;;;11.03;100.00
6532;BME280;3299;42.004;24.868;2023-04-19T03:40:36;97617.53;;;10.78;100.00
6532;BME280;3299;42.004;24.868;2023-04-19T03:43:02;97655.66;;;11.17;100.00
6532;BME280;3299;42.004;24.868;2023-04-19T03:45:27;97626.81;;;11.01;100.00
6532;BME280;3299;42.004;24.868;2023-04-19T03:47:52;97587.63;;;10.85;100.00
6532;BME280;3299;42.004;24.868;2023-04-19T03:50:18;97639.44;;;11.15;100.00
6532;BME280;3299;42.004;24.868;2023-04-19T03:52:43;97669.28;;;11.39;100.00
6532;BME280;3299;42.004;24.868;2023-04-19T03:55:09;97648.28;;;11.33;100.00
6532;BME280;3299;42.004;24.868;2023-04-19T03:57:36;97650.09;;;11.21;100.00
6532;BME280;3299;42.004;24.868;2023-04-19T04:00:03;97640.81;;;11.19;100.00
6532;BME280;3299;42.004;24.868;2023-04-19T04:02:31;97638.03;;;11.11;100.00
6532;BME280;3299;42.004;24.868;2023-04-19T04:04:57;97604.06;;;10.84;100.00
6532;BME280;3299;42.004;24.868;2023-04-19T04:07:22;97623.72;;;10.86;100.00
6532;BME280;3299;42.004;24.868;2023-04-19T04:09:48;97599.34;;;10.68;100.00
6532;BME280;3299;42.004;24.868;2023-04-19T04:12:14;97670.50;;;11.15;100.00
6532;BME280;3299;42.004;24.868;2023-04-19T04:14:40;97606.94;;;10.81;100.00
6532;BME280;3299;42.004;24.868;2023-04-19T04:17:05;97604.00;;;10.74;100.00
6532;BME280;3299;42.004;24.868;2023-04-19T04:19:31;97662.81;;;11.04;100.00
6532;BME280;3299;42.004;24.868;2023-04-19T04:21:56;97661.16;;;11.03;100.00
6532;BME280;3299;42.004;24.868;2023-04-19T04:24:22;97650.75;;;10.93;100.00
6532;BME280;3299;42.004;24.868;2023-04-19T04:26:47;97664.94;;;10.99;100.00
6532;BME280;3299;42.004;24.868;2023-04-19T04:29:14;97633.75;;;10.80;100.00
6532;BME280;3299;42.004;24.868;2023-04-19T04:31:40;97606.09;;;10.60;100.00
6532;BME280;3299;42.004;24.868;2023-04-19T04:34:06;97665.00;;;10.88;100.00
6532;BME280;3299;42.004;24.868;2023-04-19T04:36:33;97648.84;;;10.75;100.00
6532;BME280;3299;42.004;24.868;2023-04-19T04:38:59;97580.31;;;10.38;100.00
6532;BME280;3299;42.004;24.868;2023-04-19T04:41:26;97668.09;;;11.02;100.00
6532;BME280;3299;42.004;24.868;2023-04-19T04:43:52;97626.44;;;10.85;100.00
6532;BME280;3299;42.004;24.868;2023-04-19T04:46:17;97675.63;;;11.26;100.00
6532;BME280;3299;42.004;24.868;2023-04-19T04:48:43;97619.75;;;11.03;100.00
6532;BME280;3299;42.004;24.868;2023-04-19T04:51:08;97667.97;;;11.45;100.00
6532;BME280;3299;42.004;24.868;2023-04-19T04:53:33;97595.00;;;10.89;100.00
6532;BME280;3299;42.004;24.868;2023-04-19T04:55:59;97638.94;;;11.21;100.00
6532;BME280;3299;42.004;24.868;2023-04-19T04:58:24;97662.16;;;11.32;100.00
6532;BME280;3299;42.004;24.868;2023-04-19T05:00:50;97665.44;;;11.34;100.00
6532;BME280;3299;42.004;24.868;2023-04-19T05:03:15;97671.63;;;11.22;100.00
6532;BME280;3299;42.004;24.868;2023-04-19T05:05:41;97666.06;;;11.26;100.00
6532;BME280;3299;42.004;24.868;2023-04-19T05:08:07;97673.53;;;11.40;100.00
6532;BME280;3299;42.004;24.868;2023-04-19T05:10:32;97595.41;;;10.85;100.00
6532;BME280;3299;42.004;24.868;2023-04-19T05:12:57;97631.69;;;11.15;100.00
6532;BME280;3299;42.004;24.868;2023-04-19T05:15:23;97592.16;;;10.92;100.00
6532;BME280;3299;42.004;24.868;2023-04-19T05:17:48;97673.16;;;11.45;100.00
6532;BME280;3299;42.004;24.868;2023-04-19T05:20:14;97686.25;;;11.53;100.00
6532;BME280;3299;42.004;24.868;2023-04-19T05:22:39;97678.56;;;11.62;100.00
6532;BME280;3299;42.004;24.868;2023-04-19T05:25:05;97599.38;;;11.19;100.00
6532;BME280;3299;42.004;24.868;2023-04-19T05:27:30;97668.28;;;11.72;100.00
6532;BME280;3299;42.004;24.868;2023-04-19T05:29:56;97650.06;;;11.62;100.00
6532;BME280;3299;42.004;24.868;2023-04-19T05:32:21;97605.88;;;11.34;100.00
6532;BME280;3299;42.004;24.868;2023-04-19T05:34:47;97648.13;;;11.55;100.00
6532;BME280;3299;42.004;24.868;2023-04-19T05:37:12;97610.09;;;11.35;100.00
6532;BME280;3299;42.004;24.868;2023-04-19T05:39:37;97681.91;;;11.74;100.00
6532;BME280;3299;42.004;24.868;2023-04-19T05:42:03;97635.81;;;11.47;100.00
6532;BME280;3299;42.004;24.868;2023-04-19T05:44:28;97676.16;;;11.70;100.00
6532;BME280;3299;42.004;24.868;2023-04-19T05:46:53;97607.06;;;11.30;100.00
6532;BME280;3299;42.004;24.868;2023-04-19T05:49:19;97599.13;;;11.22;100.00
6532;BME280;3299;42.004;24.868;2023-04-19T05:51:44;97682.16;;;11.71;100.00
6532;BME280;3299;42.004;24.868;2023-04-19T05:54:10;97682.44;;;11.68;100.00
6532;BME280;3299;42.004;24.868;2023-04-19T05:56:37;97677.72;;;11.32;100.00
6532;BME280;3299;42.004;24.868;2023-04-19T05:59:03;97630.09;;;11.03;100.00
6532;BME280;3299;42.004;24.868;2023-04-19T06:01:29;97621.06;;;10.97;100.00
6532;BME280;3299;42.004;24.868;2023-04-19T06:03:54;97679.22;;;11.34;100.00
6532;BME280;3299;42.004;24.868;2023-04-19T06:06:23;97681.88;;;11.44;100.00
6532;BME280;3299;42.004;24.868;2023-04-19T06:08:49;97682.47;;;11.57;100.00
6532;BME280;3299;42.004;24.868;2023-04-19T06:11:14;97637.13;;;11.42;100.00
6532;BME280;3299;42.004;24.868;2023-04-19T06:13:40;97599.19;;;11.31;100.00
6532;BME280;3299;42.004;24.868;2023-04-19T06:16:06;97673.09;;;11.86;100.00
6532;BME280;3299;42.004;24.868;2023-04-19T06:18:32;97671.66;;;11.72;100.00
6532;BME280;3299;42.004;24.868;2023-04-19T06:20:57;97688.09;;;11.82;100.00
6532;BME280;3299;42.004;24.868;2023-04-19T06:23:23;97671.53;;;11.74;100.00
6532;BME280;3299;42.004;24.868;2023-04-19T06:25:49;97649.75;;;11.56;100.00
6532;BME280;3299;42.004;24.868;2023-04-19T06:28:15;97652.66;;;11.62;100.00
6532;BME280;3299;42.004;24.868;2023-04-19T06:30:40;97612.19;;;11.41;100.00
6532;BME280;3299;42.004;24.868;2023-04-19T06:33:05;97621.50;;;11.53;100.00
6532;BME280;3299;42.004;24.868;2023-04-19T06:35:31;97689.94;;;12.01;100.00
6532;BME280;3299;42.004;24.868;2023-04-19T06:37:58;97705.75;;;11.98;100.00
6532;BME280;3299;42.004;24.868;2023-04-19T06:40:24;97634.03;;;11.27;100.00
6532;BME280;3299;42.004;24.868;2023-04-19T06:42:49;97641.31;;;11.13;100.00
6532;BME280;3299;42.004;24.868;2023-04-19T06:45:15;97642.78;;;11.26;100.00
6532;BME280;3299;42.004;24.868;2023-04-19T06:47:40;97614.91;;;11.19;100.00
6532;BME280;3299;42.004;24.868;2023-04-19T06:50:06;97629.19;;;11.34;100.00
6532;BME280;3299;42.004;24.868;2023-04-19T06:52:31;97621.03;;;11.38;100.00
6532;BME280;3299;42.004;24.868;2023-04-19T06:54:57;97661.19;;;11.74;100.00
6532;BME280;3299;42.004;24.868;2023-04-19T06:57:22;97694.97;;;12.02;100.00
6532;BME280;3299;42.004;24.868;2023-04-19T06:59:48;97707.84;;;12.13;100.00
6532;BME280;3299;42.004;24.868;2023-04-19T07:02:13;97677.78;;;12.01;100.00
6532;BME280;3299;42.004;24.868;2023-04-19T07:04:38;97705.38;;;12.12;100.00
6532;BME280;3299;42.004;24.868;2023-04-19T07:07:06;97666.31;;;11.94;100.00
6532;BME280;3299;42.004;24.868;2023-04-19T07:09:32;97633.78;;;11.81;100.00
6532;BME280;3299;42.004;24.868;2023-04-19T07:11:57;97655.66;;;11.97;100.00
6532;BME280;3299;42.004;24.868;2023-04-19T07:14:23;97696.97;;;12.29;100.00
6532;BME280;3299;42.004;24.868;2023-04-19T07:16:48;97684.69;;;12.31;100.00
6532;BME280;3299;42.004;24.868;2023-04-19T07:19:14;97616.63;;;11.99;100.00
6532;BME280;3299;42.004;24.868;2023-04-19T07:21:40;97658.88;;;12.29;100.00
6532;BME280;3299;42.004;24.868;2023-04-19T07:24:06;97715.09;;;12.68;100.00
6532;BME280;3299;42.004;24.868;2023-04-19T07:26:32;97659.75;;;12.49;100.00
6532;BME280;3299;42.004;24.868;2023-04-19T07:28:58;97693.91;;;12.73;100.00
6532;BME280;3299;42.004;24.868;2023-04-19T07:31:24;97634.88;;;12.46;100.00
6532;BME280;3299;42.004;24.868;2023-04-19T07:33:50;97713.50;;;12.96;100.00
6532;BME280;3299;42.004;24.868;2023-04-19T07:36:15;97710.75;;;12.97;100.00
6532;BME280;3299;42.004;24.868;2023-04-19T07:38:40;97731.22;;;12.91;100.00
6532;BME280;3299;42.004;24.868;2023-04-19T07:41:06;97724.09;;;12.93;100.00
6532;BME280;3299;42.004;24.868;2023-04-19T07:43:32;97699.78;;;12.84;100.00
6532;BME280;3299;42.004;24.868;2023-04-19T07:45:57;97720.06;;;13.00;100.00
6532;BME280;3299;42.004;24.868;2023-04-19T07:48:23;97699.78;;;12.65;100.00
6532;BME280;3299;42.004;24.868;2023-04-19T07:50:48;97672.44;;;12.52;100.00
6532;BME280;3299;42.004;24.868;2023-04-19T07:53:13;97720.53;;;12.75;100.00
6532;BME280;3299;42.004;24.868;2023-04-19T07:55:40;97667.09;;;12.34;100.00
6532;BME280;3299;42.004;24.868;2023-04-19T07:58:06;97727.09;;;12.79;100.00
6532;BME280;3299;42.004;24.868;2023-04-19T08:00:31;97682.81;;;12.52;100.00
6532;BME280;3299;42.004;24.868;2023-04-19T08:02:59;97696.44;;;12.44;100.00
6532;BME280;3299;42.004;24.868;2023-04-19T08:05:24;97687.44;;;12.39;100.00
6532;BME280;3299;42.004;24.868;2023-04-19T08:07:51;97739.25;;;12.69;100.00
6532;BME280;3299;42.004;24.868;2023-04-19T08:10:17;97699.22;;;12.62;100.00
6532;BME280;3299;42.004;24.868;2023-04-19T08:12:43;97651.41;;;12.36;100.00
6532;BME280;3299;42.004;24.868;2023-04-19T08:15:12;97652.75;;;12.40;100.00
6532;BME280;3299;42.004;24.868;2023-04-19T08:17:39;97721.38;;;12.75;100.00
6532;BME280;3299;42.004;24.868;2023-04-19T08:20:07;97723.97;;;12.85;100.00
6532;BME280;3299;42.004;24.868;2023-04-19T08:22:32;97694.56;;;12.56;100.00
6532;BME280;3299;42.004;24.868;2023-04-19T08:24:58;97729.59;;;12.80;100.00
6532;BME280;3299;42.004;24.868;2023-04-19T08:27:23;97722.19;;;12.76;100.00
6532;BME280;3299;42.004;24.868;2023-04-19T08:29:51;97692.53;;;12.69;100.00
6532;BME280;3299;42.004;24.868;2023-04-19T08:32:16;97687.63;;;12.66;100.00
6532;BME280;3299;42.004;24.868;2023-04-19T08:34:42;97686.25;;;12.62;100.00
6532;BME280;3299;42.004;24.868;2023-04-19T08:37:07;97678.47;;;12.62;100.00
6532;BME280;3299;42.004;24.868;2023-04-19T08:39:33;97657.69;;;12.62;100.00
6532;BME280;3299;42.004;24.868;2023-04-19T08:42:04;97645.69;;;12.61;100.00
6532;BME280;3299;42.004;24.868;2023-04-19T08:44:31;97658.78;;;12.88;100.00
6532;BME280;3299;42.004;24.868;2023-04-19T08:47:00;97637.75;;;12.91;100.00
6532;BME280;3299;42.004;24.868;2023-04-19T08:49:27;97638.59;;;13.01;100.00
6532;BME280;3299;42.004;24.868;2023-04-19T08:51:53;97649.50;;;13.23;100.00
6532;BME280;3299;42.004;24.868;2023-04-19T08:54:20;97705.69;;;13.80;100.00
6532;BME280;3299;42.004;24.868;2023-04-19T08:56:46;97678.59;;;13.82;100.00
6532;BME280;3299;42.004;24.868;2023-04-19T08:59:11;97715.69;;;14.11;100.00
6532;BME280;3299;42.004;24.868;2023-04-19T09:01:38;97647.25;;;13.84;100.00
6532;BME280;3299;42.004;24.868;2023-04-19T09:04:04;97649.22;;;13.99;100.00
6532;BME280;3299;42.004;24.868;2023-04-19T09:06:35;97714.84;;;14.47;100.00
6532;BME280;3299;42.004;24.868;2023-04-19T09:09:21;97668.69;;;14.49;100.00
6532;BME280;3299;42.004;24.868;2023-04-19T09:11:47;97667.91;;;14.66;100.00
6532;BME280;3299;42.004;24.868;2023-04-19T09:14:14;97716.69;;;15.17;100.00
6532;BME280;3299;42.004;24.868;2023-04-19T09:16:40;97662.31;;;14.96;100.00
6532;BME280;3299;42.004;24.868;2023-04-19T09:19:06;97721.91;;;15.52;100.00
6532;BME280;3299;42.004;24.868;2023-04-19T09:21:37;97689.88;;;15.42;100.00
6532;BME280;3299;42.004;24.868;2023-04-19T09:24:03;97720.94;;;15.78;100.00
6532;BME280;3299;42.004;24.868;2023-04-19T09:26:29;97728.31;;;16.16;100.00
6532;BME280;3299;42.004;24.868;2023-04-19T09:29:01;97697.19;;;16.23;100.00
6532;BME280;3299;42.004;24.868;2023-04-19T09:31:30;97643.47;;;16.12;100.00
6532;BME280;3299;42.004;24.868;2023-04-19T09:33:56;97670.53;;;16.45;100.00
6532;BME280;3299;42.004;24.868;2023-04-19T09:36:31;97720.25;;;16.85;100.00
6532;BME280;3299;42.004;24.868;2023-04-19T09:38:57;97689.22;;;16.74;100.00
6532;BME280;3299;42.004;24.868;2023-04-19T09:41:23;97658.84;;;16.73;100.00
6532;BME280;3299;42.004;24.868;2023-04-19T09:43:50;97714.75;;;17.20;100.00
6532;BME280;3299;42.004;24.868;2023-04-19T09:46:35;97677.78;;;17.07;100.00
6532;BME280;3299;42.004;24.868;2023-04-19T09:51:51;97677.16;;;17.05;91.71
6532;BME280;3299;42.004;24.868;2023-04-19T09:54:19;97700.88;;;17.27;91.86
6532;BME280;3299;42.004;24.868;2023-04-19T09:56:45;97640.72;;;17.03;93.77
6532;BME280;3299;42.004;24.868;2023-04-19T09:59:11;97666.22;;;17.25;91.46
6532;BME280;3299;42.004;24.868;2023-04-19T10:01:44;97662.44;;;17.36;91.37
6532;BME280;3299;42.004;24.868;2023-04-19T10:04:13;97684.03;;;17.62;89.81
6532;BME280;3299;42.004;24.868;2023-04-19T10:06:39;97704.38;;;17.90;86.13
6532;BME280;3299;42.004;24.868;2023-04-19T10:09:06;97701.28;;;17.95;85.00
6532;BME280;3299;42.004;24.868;2023-04-19T10:11:36;97675.78;;;17.89;81.78
6532;BME280;3299;42.004;24.868;2023-04-19T10:14:07;97656.19;;;17.77;77.86
6532;BME280;3299;42.004;24.868;2023-04-19T10:16:34;97694.72;;;18.07;78.66
6532;BME280;3299;42.004;24.868;2023-04-19T10:19:02;97643.72;;;17.87;79.24
6532;BME280;3299;42.004;24.868;2023-04-19T10:21:29;97695.31;;;18.17;76.56
6532;BME280;3299;42.004;24.868;2023-04-19T10:23:56;97699.19;;;18.29;78.61
6532;BME280;3299;42.004;24.868;2023-04-19T10:26:22;97702.47;;;18.23;74.16
6532;BME280;3299;42.004;24.868;2023-04-19T10:28:47;97674.75;;;17.98;73.95
6532;BME280;3299;42.004;24.868;2023-04-19T10:31:13;97664.16;;;17.91;73.41
6532;BME280;3299;42.004;24.868;2023-04-19T10:33:39;97678.31;;;18.13;72.90
6532;BME280;3299;42.004;24.868;2023-04-19T10:36:09;97630.78;;;17.85;68.89
6532;BME280;3299;42.004;24.868;2023-04-19T10:38:45;97703.13;;;18.41;68.08
6532;BME280;3299;42.004;24.868;2023-04-19T10:41:20;97637.59;;;18.10;71.62
6532;BME280;3299;42.004;24.868;2023-04-19T10:44:10;97715.06;;;18.74;65.27
6532;BME280;3299;42.004;24.868;2023-04-19T10:46:38;97625.78;;;18.53;63.63
6532;BME280;3299;42.004;24.868;2023-04-19T10:49:06;97696.75;;;18.96;59.42
6532;BME280;3299;42.004;24.868;2023-04-19T10:51:35;97630.88;;;18.69;61.84
6532;BME280;3299;42.004;24.868;2023-04-19T10:54:02;97696.41;;;19.44;64.04
6532;BME280;3299;42.004;24.868;2023-04-19T11:01:55;97709.97;;;20.14;55.88
6532;BME280;3299;42.004;24.868;2023-04-19T11:04:24;97661.81;;;20.07;58.42
6532;BME280;3299;42.004;24.868;2023-04-19T11:07:08;97630.25;;;19.49;55.23
6532;BME280;3299;42.004;24.868;2023-04-19T11:12:09;97663.94;;;19.60;55.46
6532;BME280;3299;42.004;24.868;2023-04-19T11:14:55;97675.44;;;19.36;58.38
6532;BME280;3299;42.004;24.868;2023-04-19T11:17:28;97694.44;;;19.16;58.38
6532;BME280;3299;42.004;24.868;2023-04-19T11:20:13;97649.34;;;18.98;57.87
6532;BME280;3299;42.004;24.868;2023-04-19T11:22:43;97683.63;;;19.19;57.43
6532;BME280;3299;42.004;24.868;2023-04-19T11:25:14;97697.66;;;19.48;58.78
6532;BME280;3299;42.004;24.868;2023-04-19T11:27:42;97620.56;;;19.35;57.15
6532;BME280;3299;42.004;24.868;2023-04-19T11:30:16;97688.13;;;19.70;57.71
6532;BME280;3299;42.004;24.868;2023-04-19T11:32:48;97637.34;;;19.26;59.53
6532;BME280;3299;42.004;24.868;2023-04-19T11:35:14;97652.16;;;19.56;59.55
6532;BME280;3299;42.004;24.868;2023-04-19T11:37:40;97674.34;;;19.68;58.61
6532;BME280;3299;42.004;24.868;2023-04-19T11:40:06;97652.28;;;19.77;59.20
6532;BME280;3299;42.004;24.868;2023-04-19T11:42:34;97632.00;;;19.71;57.76
6532;BME280;3299;42.004;24.868;2023-04-19T11:45:00;97581.94;;;19.58;61.43
6532;BME280;3299;42.004;24.868;2023-04-19T11:47:26;97645.91;;;19.57;60.81
6532;BME280;3299;42.004;24.868;2023-04-19T11:49:53;97660.47;;;19.59;60.17
6532;BME280;3299;42.004;24.868;2023-04-19T11:52:21;97636.22;;;19.43;59.90
6532;BME280;3299;42.004;24.868;2023-04-19T11:54:47;97689.19;;;19.61;64.84
6532;BME280;3299;42.004;24.868;2023-04-19T11:57:12;97624.72;;;18.62;70.79
6532;BME280;3299;42.004;24.868;2023-04-19T11:59:38;97595.56;;;18.04;73.06
6532;BME280;3299;42.004;24.868;2023-04-19T12:02:07;97660.69;;;18.07;77.18
6532;BME280;3299;42.004;24.868;2023-04-19T12:04:33;97626.06;;;17.81;79.74
6532;BME280;3299;42.004;24.868;2023-04-19T12:07:00;97622.47;;;17.82;81.84
6532;BME280;3299;42.004;24.868;2023-04-19T12:09:26;97670.19;;;17.92;80.29
6532;BME280;3299;42.004;24.868;2023-04-19T12:11:52;97630.31;;;17.90;79.79
6532;BME280;3299;42.004;24.868;2023-04-19T12:14:19;97661.00;;;18.04;80.20
6532;BME280;3299;42.004;24.868;2023-04-19T12:17:25;97635.31;;;17.61;80.04
6532;BME280;3299;42.004;24.868;2023-04-19T12:19:51;97654.28;;;17.55;82.11
6532;BME280;3299;42.004;24.868;2023-04-19T12:22:18;97640.19;;;17.64;81.23
6532;BME280;3299;42.004;24.868;2023-04-19T12:24:52;97637.31;;;17.43;84.99
6532;BME280;3299;42.004;24.868;2023-04-19T12:27:17;97587.78;;;17.09;86.30
6532;BME280;3299;42.004;24.868;2023-04-19T12:29:43;97617.66;;;17.23;85.92
6532;BME280;3299;42.004;24.868;2023-04-19T12:32:10;97624.53;;;17.32;84.02
6532;BME280;3299;42.004;24.868;2023-04-19T12:34:35;97635.97;;;17.47;82.24
6532;BME280;3299;42.004;24.868;2023-04-19T12:37:01;97637.31;;;17.43;83.16
6532;BME280;3299;42.004;24.868;2023-04-19T12:39:30;97631.56;;;17.23;84.99
6532;BME280;3299;42.004;24.868;2023-04-19T12:41:55;97603.31;;;17.11;82.06
6532;BME280;3299;42.004;24.868;2023-04-19T12:44:21;97649.91;;;17.39;83.86
6532;BME280;3299;42.004;24.868;2023-04-19T12:46:47;97565.78;;;16.80;86.34
6532;BME280;3299;42.004;24.868;2023-04-19T12:49:13;97630.59;;;17.00;85.06
6532;BME280;3299;42.004;24.868;2023-04-19T12:51:38;97627.34;;;17.06;85.63
6532;BME280;3299;42.004;24.868;2023-04-19T12:54:03;97617.53;;;17.08;86.92
6532;BME280;3299;42.004;24.868;2023-04-19T12:56:31;97629.28;;;17.12;86.74
6532;BME280;3299;42.004;24.868;2023-04-19T12:58:56;97556.16;;;16.64;86.09
6532;BME280;3299;42.004;24.868;2023-04-19T13:01:22;97597.28;;;16.78;87.77
6532;BME280;3299;42.004;24.868;2023-04-19T13:03:47;97611.66;;;16.90;87.76
6532;BME280;3299;42.004;24.868;2023-04-19T13:06:13;97552.19;;;16.44;86.35
6532;BME280;3299;42.004;24.868;2023-04-19T13:08:39;97587.97;;;16.68;86.94
6532;BME280;3299;42.004;24.868;2023-04-19T13:11:05;97622.59;;;16.86;87.35